Time;durP1;ratioP1;P1;durP2;ratioP2;P2;SDS_P1;SDS_P2;PMS_P1;PMS_P2;Temp;Humidity;BMP_temperature;BMP_pressure;BME280_temperature;BME280_humidity;BME280_pressure;Samples;Min_cycle;Max_cycle;Signal;HPM_P1;HPM_P2
2022/10/07 00:01:26;683018.00;2.28;1177.80;18510.00;0.06;32.69;;;;;19.50;1.00;;;;;;2295851;56;3754;-85
2022/10/07 00:03:54;882515.00;2.94;1525.43;0.00;0.00;0.62;;;;;19.70;1.00;;;;;;2291388;56;3765;-85
2022/10/07 00:06:30;377665.00;1.26;651.41;0.00;0.00;0.62;;;;;19.80;1.00;;;;;;2334232;40;3582;-85
2022/10/07 00:08:58;558495.00;1.86;962.61;67107.00;0.22;116.76;;;;;19.80;1.00;;;;;;2331319;55;3753;-85
2022/10/07 00:14:02;794265.00;2.65;1371.12;72393.00;0.24;125.90;;;;;19.60;1.00;;;;;;1316188;40;3191;-85
2022/10/07 00:16:31;691863.00;2.31;1193.13;88560.00;0.30;153.82;;;;;19.60;1.00;;;;;;2276368;61;1924;-88
2022/10/07 00:21:43;1128921.00;3.76;1962.22;188642.00;0.63;326.37;;;;;19.60;1.00;;;;;;2398295;40;2124;-84
2022/10/07 00:29:26;931368.00;3.10;1611.28;0.00;0.00;0.62;;;;;19.40;1.00;;;;;;2039751;60;1686;-86
2022/10/07 00:31:54;929947.00;3.10;1608.78;0.00;0.00;0.62;;;;;19.40;1.00;;;;;;2268233;61;1580;-85
2022/10/07 00:34:21;754341.00;2.51;1301.61;37907.00;0.13;66.27;;;;;19.50;1.00;;;;;;2268190;61;1376;-87
2022/10/07 00:36:52;773623.00;2.58;1335.16;0.00;0.00;0.62;;;;;19.50;1.00;;;;;;2268269;61;1132;-85
2022/10/07 00:47:00;1700504.00;5.67;3026.40;92466.00;0.31;160.57;;;;;19.60;1.00;;;;;;2277737;61;1358;-85
2022/10/07 00:52:10;1511870.00;5.04;2665.48;38465.00;0.13;67.23;;;;;19.60;1.00;;;;;;485181;56;3128;-85
2022/10/07 00:55:00;665803.00;2.22;1147.99;0.00;0.00;0.62;;;;;19.60;1.00;;;;;;2318336;56;3704;-84
2022/10/07 00:57:30;498369.00;1.66;859.02;54782.00;0.18;95.46;;;;;19.50;1.00;;;;;;2276126;61;984;-87
2022/10/07 00:59:58;290912.00;0.97;502.30;0.00;0.00;0.62;;;;;19.50;1.00;;;;;;2276252;61;1316;-85
2022/10/07 01:02:27;770645.00;2.57;1329.98;31585.00;0.11;55.33;;;;;19.50;1.00;;;;;;2276894;61;1658;-86
2022/10/07 01:04:57;593437.00;1.98;1022.89;31042.00;0.10;54.39;;;;;19.60;1.00;;;;;;2276920;61;2176;-84
2022/10/07 01:07:26;740923.00;2.47;1278.28;86671.00;0.29;150.56;;;;;19.60;1.00;;;;;;2276911;61;1589;-86
2022/10/07 01:09:58;283588.00;0.95;489.71;0.00;0.00;0.62;;;;;19.30;1.00;;;;;;2276764;61;1109;-86
2022/10/07 01:12:39;320386.00;1.07;552.96;0.00;0.00;0.62;;;;;19.40;1.00;;;;;;2276903;61;1039;-86
2022/10/07 01:15:13;298438.00;0.99;515.23;0.00;0.00;0.62;;;;;19.50;1.00;;;;;;2276838;61;2002;-86
2022/10/07 01:17:48;399200.00;1.33;688.43;20100.00;0.07;35.44;;;;;19.60;1.00;;;;;;2276952;61;1099;-86
2022/10/07 01:20:34;607057.00;2.02;1046.41;75640.00;0.25;131.51;;;;;19.70;1.00;;;;;;2276904;61;952;-85
2022/10/07 01:23:20;644040.00;2.15;1110.33;35362.00;0.12;61.86;;;;;19.40;1.00;;;;;;2276781;61;1314;-85
2022/10/07 01:26:11;439859.00;1.47;758.34;0.00;0.00;0.62;;;;;19.50;1.00;;;;;;2276872;61;926;-86
2022/10/07 01:28:45;397392.00;1.32;685.32;0.00;0.00;0.62;;;;;19.70;1.00;;;;;;2276899;61;942;-85
2022/10/07 01:31:17;297033.00;0.99;512.82;0.00;0.00;0.62;;;;;19.70;1.00;;;;;;2276857;61;1009;-87
2022/10/07 01:33:46;329735.00;1.10;569.03;0.00;0.00;0.62;;;;;19.70;1.00;;;;;;2276783;61;1451;-85
2022/10/07 01:36:17;426539.00;1.42;735.43;0.00;0.00;0.62;;;;;19.80;1.00;;;;;;2276786;61;1994;-85
2022/10/07 01:38:51;345425.00;1.15;596.00;0.00;0.00;0.62;;;;;19.90;1.00;;;;;;2276866;61;1066;-86
2022/10/07 01:41:22;204287.00;0.68;353.30;0.00;0.00;0.62;;;;;19.90;1.00;;;;;;2276834;61;1075;-86
2022/10/07 01:43:54;320095.00;1.07;552.46;0.00;0.00;0.62;;;;;19.80;1.00;;;;;;2276775;61;1473;-85
2022/10/07 01:46:23;259051.00;0.86;447.52;0.00;0.00;0.62;;;;;19.80;1.00;;;;;;2276767;61;1091;-86
2022/10/07 01:48:50;384077.00;1.28;662.43;69512.00;0.23;120.92;;;;;19.70;1.00;;;;;;2276785;61;1110;-86
2022/10/07 01:51:20;202911.00;0.68;350.93;0.00;0.00;0.62;;;;;19.70;1.00;;;;;;2276709;61;1141;-85
2022/10/07 01:53:57;302535.00;1.01;522.28;0.00;0.00;0.62;;;;;19.50;1.00;;;;;;2276771;61;1358;-86
2022/10/07 01:56:45;404485.00;1.35;697.52;0.00;0.00;0.62;;;;;19.40;1.00;;;;;;2276635;61;1915;-85
2022/10/07 01:59:42;212500.00;0.71;367.44;0.00;0.00;0.62;;;;;19.30;1.00;;;;;;2276776;61;1041;-84
2022/10/07 02:02:20;330446.00;1.10;570.25;0.00;0.00;0.62;;;;;19.30;1.00;;;;;;2276313;61;1090;-85
2022/10/07 02:04:58;372205.00;1.24;642.03;0.00;0.00;0.62;;;;;19.50;1.00;;;;;;2276748;61;1512;-86
2022/10/07 02:07:36;205468.00;0.68;355.34;0.00;0.00;0.62;;;;;19.50;1.00;;;;;;2276651;61;1540;-86
2022/10/07 02:10:16;269618.00;0.90;465.69;0.00;0.00;0.62;;;;;19.40;1.00;;;;;;2276741;61;1024;-85
2022/10/07 02:12:49;459341.00;1.53;791.85;0.00;0.00;0.62;;;;;19.10;1.00;;;;;;2276532;61;1091;-85
2022/10/07 02:15:20;472707.00;1.58;814.85;41545.00;0.14;72.56;;;;;19.10;1.00;;;;;;2276680;61;1911;-85
2022/10/07 02:17:52;256043.00;0.85;442.34;0.00;0.00;0.62;;;;;19.10;1.00;;;;;;2276704;61;1122;-85
2022/10/07 02:20:25;324394.00;1.08;559.85;0.00;0.00;0.62;;;;;19.00;1.00;;;;;;2276628;61;1039;-86
2022/10/07 02:22:55;443196.00;1.48;764.08;0.00;0.00;0.62;;;;;18.90;1.00;;;;;;2276672;61;1316;-85
2022/10/07 02:25:25;333690.00;1.11;575.83;0.00;0.00;0.62;;;;;18.90;1.00;;;;;;2276635;61;1107;-85
2022/10/07 02:27:54;464000.00;1.55;799.87;57413.00;0.19;100.00;;;;;18.90;1.00;;;;;;2276701;61;1161;-85
2022/10/07 02:30:23;459103.00;1.53;791.44;43614.00;0.15;76.14;;;;;18.90;1.00;;;;;;2276594;61;1103;-86
2022/10/07 02:32:54;521503.00;1.74;898.85;69869.00;0.23;121.53;;;;;19.00;1.00;;;;;;2276524;61;1299;-86
2022/10/07 02:35:28;363761.00;1.21;627.51;0.00;0.00;0.62;;;;;19.20;1.00;;;;;;2276597;61;1982;-85
2022/10/07 02:38:00;310006.00;1.03;535.12;0.00;0.00;0.62;;;;;19.20;1.00;;;;;;2276624;61;1063;-85
2022/10/07 02:40:35;285486.00;0.95;492.97;21933.00;0.07;38.62;;;;;19.10;1.00;;;;;;2276649;61;1114;-86
2022/10/07 02:43:07;541480.00;1.80;933.27;20959.00;0.07;36.93;;;;;19.20;1.00;;;;;;2276601;61;1372;-87
2022/10/07 02:45:44;122217048.00;407.39;73955712.00;0.00;0.00;0.62;;;;;19.20;1.00;;;;;;2276649;61;1029;-85
2022/10/07 02:48:20;315956.00;1.05;545.35;0.00;0.00;0.62;;;;;19.30;1.00;;;;;;2276609;61;1125;-86
2022/10/07 02:50:54;482769.00;1.61;832.16;0.00;0.00;0.62;;;;;19.20;1.00;;;;;;2276605;61;1150;-84
2022/10/07 02:53:23;536782.00;1.79;925.18;33673.00;0.11;58.94;;;;;19.20;1.00;;;;;;2276562;61;1467;-85
2022/10/07 02:55:54;189448.00;0.63;327.76;0.00;0.00;0.62;;;;;19.00;1.00;;;;;;2276484;61;1994;-85
2022/10/07 02:58:24;331773.00;1.11;572.53;0.00;0.00;0.62;;;;;19.20;1.00;;;;;;2276474;61;983;-85
2022/10/07 03:00:57;267293.00;0.89;461.69;0.00;0.00;0.62;;;;;19.40;1.00;;;;;;2276522;61;2253;-85
2022/10/07 03:03:29;204095.00;0.68;352.97;0.00;0.00;0.62;;;;;19.50;1.00;;;;;;2276457;61;1477;-87
2022/10/07 03:05:57;565360.00;1.88;974.44;0.00;0.00;0.62;;;;;19.50;1.00;;;;;;2273016;61;1348;-84
2022/10/07 03:08:24;367882.00;1.23;634.60;0.00;0.00;0.62;;;;;19.40;1.00;;;;;;2276559;61;957;-85
2022/10/07 03:10:51;404900.00;1.35;698.23;0.00;0.00;0.62;;;;;19.30;1.00;;;;;;2276542;61;1138;-85
2022/10/07 03:13:18;324895.00;1.08;560.71;0.00;0.00;0.62;;;;;19.30;1.00;;;;;;2276443;61;1393;-85
2022/10/07 03:15:44;421758.00;1.41;727.21;0.00;0.00;0.62;;;;;19.40;1.00;;;;;;2276501;61;1911;-85
2022/10/07 03:18:24;537010.00;1.79;925.57;27931.00;0.09;49.00;;;;;19.40;1.00;;;;;;2276444;61;1056;-86
2022/10/07 03:20:54;413539.00;1.38;713.08;59824.00;0.20;104.17;;;;;19.70;1.00;;;;;;2276480;61;1159;-86
2022/10/07 03:23:21;473748.00;1.58;816.64;67291.00;0.22;117.08;;;;;19.40;1.00;;;;;;2276499;61;1276;-86
2022/10/07 03:25:50;693683.00;2.31;1196.29;147284.00;0.49;255.13;;;;;19.30;1.00;;;;;;2276438;61;1195;-84
2022/10/07 03:28:17;821194.00;2.74;1418.11;170744.00;0.57;295.55;;;;;19.00;1.00;;;;;;2276467;61;1152;-84
2022/10/07 03:30:44;567611.00;1.89;978.33;68866.00;0.23;119.80;;;;;18.90;1.00;;;;;;2276537;61;1034;-86
2022/10/07 03:33:12;617207.00;2.06;1063.94;59043.00;0.20;102.82;;;;;19.10;1.00;;;;;;2276454;61;1302;-85
2022/10/07 03:35:38;671923.00;2.24;1158.58;61521.00;0.21;107.11;;;;;19.20;1.00;;;;;;2276427;61;1990;-84
2022/10/07 03:38:07;576658.00;1.92;993.93;56476.00;0.19;98.38;;;;;19.40;1.00;;;;;;2276490;61;1015;-84
2022/10/07 03:40:34;457059.00;1.52;787.93;54367.00;0.18;94.74;;;;;19.50;1.00;;;;;;2276466;61;1077;-85
2022/10/07 03:43:01;494553.00;1.65;852.45;62730.00;0.21;109.20;;;;;19.60;1.00;;;;;;2276442;61;1367;-85
2022/10/07 03:45:29;481300.00;1.60;829.63;61605.00;0.21;107.25;;;;;19.70;1.00;;;;;;2276440;61;1103;-85
2022/10/07 03:47:56;529953.00;1.77;913.41;58282.00;0.19;101.51;;;;;19.60;1.00;;;;;;2276425;61;1041;-85
2022/10/07 03:50:22;732667.00;2.44;1263.93;78120.00;0.26;135.79;;;;;19.60;1.00;;;;;;2276388;61;1030;-84
2022/10/07 03:52:49;454513.00;1.52;783.55;69425.00;0.23;120.77;;;;;19.20;1.00;;;;;;2276463;61;1053;-85
2022/10/07 03:55:18;368395.00;1.23;635.48;66694.00;0.22;116.05;;;;;19.30;1.00;;;;;;2276303;61;1121;-85
2022/10/07 03:57:52;691622.00;2.31;1192.71;121079.00;0.40;209.94;;;;;19.40;1.00;;;;;;2276427;61;1985;-86
2022/10/07 04:00:21;651568.00;2.17;1123.35;144186.00;0.48;249.79;;;;;19.50;1.00;;;;;;2276402;61;1097;-86
2022/10/07 04:02:48;729974.00;2.43;1259.26;91174.00;0.30;158.33;;;;;19.10;1.00;;;;;;2276448;61;1125;-83
2022/10/07 04:05:16;705423.00;2.35;1216.64;77773.00;0.26;135.19;;;;;18.90;1.00;;;;;;2276411;61;1028;-85
2022/10/07 04:07:43;442811.00;1.48;763.42;60356.00;0.20;105.09;;;;;18.90;1.00;;;;;;2276342;61;1159;-85
2022/10/07 04:10:11;657167.00;2.19;1133.04;111582.00;0.37;193.56;;;;;18.80;1.00;;;;;;2276244;61;1048;-85
2022/10/07 04:12:39;388687.00;1.30;670.36;65833.00;0.22;114.56;;;;;18.90;1.00;;;;;;2276365;61;1120;-84
2022/10/07 04:15:07;491432.00;1.64;847.07;63885.00;0.21;111.19;;;;;19.10;1.00;;;;;;2276364;61;1273;-85
2022/10/07 04:17:34;462888.00;1.54;797.95;60897.00;0.20;106.03;;;;;18.80;1.00;;;;;;2275970;61;2017;-85
2022/10/07 04:20:01;463478.00;1.54;798.97;65534.00;0.22;114.04;;;;;18.70;1.00;;;;;;2276342;61;1052;-85
2022/10/07 04:22:27;608713.00;2.03;1049.27;65271.00;0.22;113.59;;;;;18.30;1.00;;;;;;2276314;61;1620;-85
2022/10/07 04:27:40;658181.00;2.19;1134.79;69512.00;0.23;120.92;;;;;18.40;1.00;;;;;;2276398;61;620;-84
2022/10/07 04:30:08;410731.00;1.37;708.25;59406.00;0.20;103.45;;;;;18.80;1.00;;;;;;2276339;61;1152;-84
2022/10/07 04:32:35;592342.00;1.97;1021.00;67659.00;0.23;117.71;;;;;18.90;1.00;;;;;;2276276;61;1096;-84
2022/10/07 04:35:04;643415.00;2.14;1109.25;69167.00;0.23;120.32;;;;;18.80;1.00;;;;;;2276280;61;1400;-84
2022/10/07 04:37:30;639667.00;2.13;1102.76;64829.00;0.22;112.82;;;;;18.80;1.00;;;;;;2276956;61;1916;-86
2022/10/07 04:39:57;480343.00;1.60;827.99;66349.00;0.22;115.45;;;;;18.80;1.00;;;;;;2276987;61;1715;-84
2022/10/07 04:45:10;647381.00;2.16;1116.11;146164.00;0.49;253.20;;;;;18.80;1.00;;;;;;2277040;61;1432;-86
2022/10/07 04:47:36;605492.00;2.02;1043.70;72654.00;0.24;126.35;;;;;18.70;1.00;;;;;;2277002;61;1177;-85
2022/10/07 04:50:04;931663.00;3.11;1611.80;139929.00;0.47;242.45;;;;;18.40;1.00;;;;;;2277016;61;1032;-85
2022/10/07 04:52:30;559141.00;1.86;963.72;66030.00;0.22;114.90;;;;;18.60;1.00;;;;;;2276907;61;1001;-85
2022/10/07 04:54:57;882208.00;2.94;1524.89;118312.00;0.39;205.17;;;;;18.50;1.00;;;;;;2276821;61;1453;-85
2022/10/07 04:57:24;421007.00;1.40;725.92;66628.00;0.22;115.93;;;;;18.50;1.00;;;;;;2276842;61;1990;-85
2022/10/07 04:59:51;397248.00;1.32;685.07;68970.00;0.23;119.98;;;;;18.20;1.00;;;;;;2276945;61;1111;-86
2022/10/07 05:02:19;451151.00;1.50;777.76;66680.00;0.22;116.02;;;;;18.10;1.00;;;;;;2276910;61;1052;-85
2022/10/07 05:04:46;548346.00;1.83;945.11;52733.00;0.18;91.91;;;;;18.20;1.00;;;;;;2276939;61;1313;-86
2022/10/07 05:07:13;579242.00;1.93;998.39;87006.00;0.29;151.14;;;;;18.10;1.00;;;;;;2276924;61;1079;-85
2022/10/07 05:09:40;320491.00;1.07;553.14;0.00;0.00;0.62;;;;;17.90;1.20;;;;;;2276921;61;1127;-84
2022/10/07 05:12:07;117412912.00;391.38;65565632.00;0.00;0.00;0.62;;;;;18.10;2.10;;;;;;2276851;61;939;-83
2022/10/07 05:14:34;311666.00;1.04;537.97;0.00;0.00;0.62;;;;;18.20;1.50;;;;;;2276837;61;1284;-86
2022/10/07 05:17:02;308808.00;1.03;533.06;0.00;0.00;0.62;;;;;18.40;1.30;;;;;;2276899;61;1911;-85
2022/10/07 05:19:30;375736.00;1.25;648.10;0.00;0.00;0.62;;;;;18.40;1.00;;;;;;2276915;61;1129;-85
2022/10/07 05:21:57;345139.00;1.15;595.51;0.00;0.00;0.62;;;;;18.40;1.00;;;;;;2276822;61;1075;-86
2022/10/07 05:24:24;286307.00;0.95;494.38;0.00;0.00;0.62;;;;;18.40;1.00;;;;;;2276826;61;1364;-86
2022/10/07 05:26:51;180885.00;0.60;313.01;0.00;0.00;0.62;;;;;18.30;1.00;;;;;;2276820;61;1085;-85
2022/10/07 05:29:18;352230.00;1.17;607.69;0.00;0.00;0.62;;;;;18.20;1.00;;;;;;2276845;61;1079;-84
2022/10/07 05:31:45;341419.00;1.14;589.11;0.00;0.00;0.62;;;;;18.40;1.00;;;;;;2276776;61;1080;-86
2022/10/07 05:34:12;208950.00;0.70;361.33;0.00;0.00;0.62;;;;;18.20;1.00;;;;;;2276733;61;1303;-86
2022/10/07 05:36:40;342833.00;1.14;591.54;0.00;0.00;0.62;;;;;18.30;1.00;;;;;;2276683;61;1994;-88
2022/10/07 05:39:07;553813.00;1.85;954.53;0.00;0.00;0.62;;;;;18.40;1.00;;;;;;2276619;61;1015;-84
2022/10/07 05:41:34;180921.00;0.60;313.08;0.00;0.00;0.62;;;;;18.60;1.00;;;;;;2276763;61;1119;-88
2022/10/07 05:44:01;369411.00;1.23;637.22;0.00;0.00;0.62;;;;;18.70;1.00;;;;;;2276690;61;1345;-86
2022/10/07 05:46:28;295962.00;0.99;510.98;0.00;0.00;0.62;;;;;18.80;1.00;;;;;;2276637;61;1108;-85
2022/10/07 05:48:55;321318.00;1.07;554.56;0.00;0.00;0.62;;;;;18.50;1.00;;;;;;2276553;61;1069;-86
2022/10/07 05:51:23;430603.00;1.44;742.42;0.00;0.00;0.62;;;;;18.70;1.00;;;;;;2276798;61;1051;-85
2022/10/07 05:53:54;447508.00;1.49;771.50;0.00;0.00;0.62;;;;;18.40;1.00;;;;;;2276593;61;1272;-85
2022/10/07 05:56:21;291129.00;0.97;502.67;30968.00;0.10;54.26;;;;;18.20;1.00;;;;;;2276559;61;1924;-85
2022/10/07 05:58:48;837874.00;2.79;1447.26;30120.00;0.10;52.79;;;;;18.00;1.00;;;;;;2276696;61;1023;-86
2022/10/07 06:01:17;369963.00;1.23;638.17;0.00;0.00;0.62;;;;;18.10;1.00;;;;;;2276771;61;1124;-85
2022/10/07 06:03:48;331563.00;1.11;572.17;0.00;0.00;0.62;;;;;18.00;1.00;;;;;;2276682;61;1377;-85
2022/10/07 06:06:15;605208.00;2.02;1043.21;67361.00;0.22;117.20;;;;;18.00;1.00;;;;;;2276700;61;1319;-86
2022/10/07 06:08:41;307868.00;1.03;531.44;15786.00;0.05;27.97;;;;;18.00;1.00;;;;;;2276627;61;1050;-85
2022/10/07 06:13:58;593481.00;1.98;1022.97;1328.00;0.00;2.92;;;;;18.00;1.00;;;;;;2276706;61;1403;-86
2022/10/07 06:16:25;448009.00;1.49;772.36;56402.00;0.19;98.26;;;;;18.20;1.00;;;;;;2276551;61;1989;-85
2022/10/07 06:18:52;621028.00;2.07;1070.54;25161.00;0.08;44.21;;;;;18.10;1.00;;;;;;2276586;61;1148;-85
2022/10/07 06:21:22;375773.00;1.25;648.16;0.00;0.00;0.62;;;;;18.20;1.00;;;;;;2276611;61;1726;-85
2022/10/07 06:23:51;242548.00;0.81;419.13;0.00;0.00;0.62;;;;;18.10;1.00;;;;;;2276660;61;1295;-86
2022/10/07 06:26:21;427760.00;1.43;737.53;0.00;0.00;0.62;;;;;18.10;1.00;;;;;;2276622;61;1164;-86
2022/10/07 06:28:48;386080.00;1.29;665.88;0.00;0.00;0.62;;;;;18.00;1.00;;;;;;2276618;61;1124;-86
2022/10/07 06:31:21;717101.00;2.39;1236.91;105897.00;0.35;183.75;;;;;17.70;1.00;;;;;;2276595;61;1078;-85
2022/10/07 06:33:48;165077.00;0.55;285.79;0.00;0.00;0.62;;;;;17.70;1.10;;;;;;2276647;61;1426;-86
2022/10/07 06:36:14;253598.00;0.85;438.14;0.00;0.00;0.62;;;;;17.60;1.80;;;;;;2276548;61;2006;-85
2022/10/07 06:38:45;488785.00;1.63;842.52;31063.00;0.10;54.42;;;;;17.70;1.00;;;;;;2276674;61;1189;-86
2022/10/07 06:41:13;322971.00;1.08;557.40;0.00;0.00;0.62;;;;;17.60;1.10;;;;;;2276608;61;1104;-86
2022/10/07 06:43:41;229006.00;0.76;395.84;0.00;0.00;0.62;;;;;17.60;2.10;;;;;;2276632;61;1285;-87
2022/10/07 06:46:12;387466.00;1.29;668.26;37948.00;0.13;66.34;;;;;17.50;1.60;;;;;;2276552;61;1030;-85
2022/10/07 06:48:41;326546.00;1.09;563.55;0.00;0.00;0.62;;;;;17.60;2.30;;;;;;2276541;61;1007;-87
2022/10/07 06:51:12;398230.00;1.33;686.76;0.00;0.00;0.62;;;;;17.90;2.20;;;;;;2276624;61;1069;-86
2022/10/07 06:53:39;597056.00;1.99;1029.14;0.00;0.00;0.62;;;;;18.10;1.90;;;;;;2276604;61;1261;-85
2022/10/07 06:56:07;440054.00;1.47;758.68;0.00;0.00;0.62;;;;;18.70;1.00;;;;;;2276476;61;1071;-86
2022/10/07 06:58:34;246468.00;0.82;425.88;0.00;0.00;0.62;;;;;19.00;1.00;;;;;;2276394;61;2002;-87
2022/10/07 07:01:03;313629.00;1.05;541.35;0.00;0.00;0.62;;;;;19.20;1.00;;;;;;2276637;61;1115;-87
2022/10/07 07:03:30;255587.00;0.85;441.56;0.00;0.00;0.62;;;;;19.30;1.00;;;;;;2276535;61;1278;-84
2022/10/07 07:05:57;565211.00;1.88;974.19;20072.00;0.07;35.39;;;;;19.20;1.00;;;;;;2276419;61;1049;-86
2022/10/07 07:08:28;445197.00;1.48;767.52;41960.00;0.14;73.28;;;;;19.30;1.00;;;;;;2276492;61;1142;-85
2022/10/07 07:10:55;838303.00;2.79;1448.01;73222.00;0.24;127.33;;;;;19.10;1.00;;;;;;2276336;61;1055;-87
2022/10/07 07:13:23;474609.00;1.58;818.12;80017.00;0.27;139.07;;;;;19.00;1.00;;;;;;2276518;61;1299;-87
2022/10/07 07:15:55;317192.00;1.06;547.47;0.00;0.00;0.62;;;;;18.90;1.00;;;;;;2276512;61;1234;-87
2022/10/07 07:18:24;122774000.00;409.25;74972352.00;65767.00;0.22;114.45;;;;;19.20;1.00;;;;;;2276506;61;1990;-85
2022/10/07 07:20:51;553345.00;1.84;953.73;93279.00;0.31;161.97;;;;;19.60;1.00;;;;;;2276508;61;976;-85
2022/10/07 07:23:18;428795.00;1.43;739.31;84635.00;0.28;147.04;;;;;19.80;1.00;;;;;;2276337;61;1427;-86
2022/10/07 07:25:45;682926.00;2.28;1177.64;100973.00;0.34;175.25;;;;;20.00;1.00;;;;;;2276481;61;1144;-86
2022/10/07 07:28:15;577016.00;1.92;994.55;58132.00;0.19;101.25;;;;;20.20;1.00;;;;;;2276357;61;1099;-86
2022/10/07 07:30:42;408009.00;1.36;703.57;72249.00;0.24;125.65;;;;;20.70;1.00;;;;;;2276487;61;1172;-87
2022/10/07 07:33:09;364216.00;1.21;628.30;65538.00;0.22;114.05;;;;;20.80;1.00;;;;;;2276443;61;1398;-85
2022/10/07 07:35:42;609055.00;2.03;1049.86;44405.00;0.15;77.51;;;;;21.20;1.00;;;;;;2276441;61;1114;-86
2022/10/07 07:38:10;324807.00;1.08;560.56;66988.00;0.22;116.56;;;;;21.60;1.00;;;;;;2276360;61;1988;-86
2022/10/07 07:40:37;218751.00;0.73;378.19;0.00;0.00;0.62;;;;;21.80;1.00;;;;;;2276346;61;1635;-86
2022/10/07 07:43:05;340903.00;1.14;588.23;0.00;0.00;0.62;;;;;21.70;1.00;;;;;;2276413;61;1410;-85
2022/10/07 07:45:35;355635.00;1.19;613.55;31180.00;0.10;54.63;;;;;21.90;1.00;;;;;;2276414;61;1071;-86
2022/10/07 07:48:02;233876.00;0.78;404.22;0.00;0.00;0.62;;;;;22.10;1.00;;;;;;2276423;61;995;-86
2022/10/07 07:50:29;333519.00;1.11;575.53;0.00;0.00;0.62;;;;;22.60;1.00;;;;;;2276362;61;1007;-86
2022/10/07 07:52:59;298175.00;0.99;514.78;0.00;0.00;0.62;;;;;22.80;1.00;;;;;;2276438;61;1367;-88
2022/10/07 07:55:26;318995.00;1.06;550.57;0.00;0.00;0.62;;;;;23.00;1.00;;;;;;2276426;61;1107;-86
2022/10/07 07:57:52;693493.00;2.31;1195.96;119189.00;0.40;206.68;;;;;22.80;1.00;;;;;;2276380;61;1981;-86
2022/10/07 08:00:19;261952.00;0.87;452.51;0.00;0.00;0.62;;;;;22.60;1.00;;;;;;2276414;61;1549;-87
2022/10/07 08:02:46;605727.00;2.02;1044.11;36532.00;0.12;63.89;;;;;22.10;1.00;;;;;;2276407;61;1133;-85
2022/10/07 08:05:13;224805.00;0.75;388.61;0.00;0.00;0.62;;;;;22.10;1.00;;;;;;2276332;61;1736;-86
2022/10/07 08:07:40;109914.00;0.37;190.68;0.00;0.00;0.62;;;;;22.20;1.00;;;;;;2276431;61;1002;-86
2022/10/07 08:10:09;402277.00;1.34;693.72;0.00;0.00;0.62;;;;;22.30;1.00;;;;;;2276107;61;944;-86
2022/10/07 08:12:36;247005.00;0.82;426.80;0.00;0.00;0.62;;;;;21.90;1.00;;;;;;2276354;61;1112;-86
2022/10/07 08:15:03;480034.00;1.60;827.46;12158.00;0.04;21.69;;;;;22.10;1.00;;;;;;2276428;61;1287;-87
2022/10/07 08:17:30;451179.00;1.50;777.81;21033.00;0.07;37.06;;;;;21.90;1.00;;;;;;2276343;61;1998;-85
2022/10/07 08:19:57;460676.00;1.54;794.15;0.00;0.00;0.62;;;;;21.80;1.00;;;;;;2276319;61;1002;-86
2022/10/07 08:22:23;507341.00;1.69;874.46;0.00;0.00;0.62;;;;;21.60;1.00;;;;;;2276243;61;1007;-87
2022/10/07 08:24:50;372272.00;1.24;642.14;0.00;0.00;0.62;;;;;21.90;1.00;;;;;;2276335;61;1368;-86
2022/10/07 08:27:19;293413.00;0.98;506.60;0.00;0.00;0.62;;;;;21.50;1.00;;;;;;2276390;61;1138;-88
2022/10/07 08:29:46;308471.00;1.03;532.48;0.00;0.00;0.62;;;;;21.50;1.00;;;;;;2276341;61;1278;-87
2022/10/07 08:32:13;294028.00;0.98;507.65;0.00;0.00;0.62;;;;;21.40;1.00;;;;;;2276393;61;1131;-87
2022/10/07 08:34:39;310078.00;1.03;535.24;0.00;0.00;0.62;;;;;21.60;1.00;;;;;;2276357;61;1322;-87
2022/10/07 08:37:06;290776.00;0.97;502.06;0.00;0.00;0.62;;;;;21.70;1.00;;;;;;2276328;61;1989;-86
2022/10/07 08:39:33;523882.00;1.75;902.95;88156.00;0.29;153.12;;;;;21.70;1.00;;;;;;2276250;61;1164;-86
2022/10/07 08:42:12;244995.00;0.82;423.34;0.00;0.00;0.62;;;;;21.40;1.00;;;;;;2276313;61;1168;-86
2022/10/07 08:44:43;463419.00;1.54;798.87;69166.00;0.23;120.32;;;;;21.20;1.00;;;;;;2276274;61;1341;-86
2022/10/07 08:47:17;269217.00;0.90;465.00;0.00;0.00;0.62;;;;;21.20;1.00;;;;;;2276270;61;1104;-87
2022/10/07 08:49:56;371017.00;1.24;639.98;0.00;0.00;0.62;;;;;21.50;1.00;;;;;;2276311;61;1055;-86
2022/10/07 08:52:32;224960.00;0.75;388.88;0.00;0.00;0.62;;;;;21.70;1.00;;;;;;2276186;61;1055;-86
2022/10/07 08:55:00;383837.00;1.28;662.02;0.00;0.00;0.62;;;;;21.60;1.00;;;;;;2276146;61;1443;-86
2022/10/07 08:57:44;289669.00;0.97;500.16;0.00;0.00;0.62;;;;;21.40;1.00;;;;;;2276202;61;1911;-88
2022/10/07 09:00:18;255978.00;0.85;442.23;0.00;0.00;0.62;;;;;21.60;1.00;;;;;;2276290;61;1145;-86
2022/10/07 09:03:04;422804.00;1.41;729.01;0.00;0.00;0.62;;;;;21.70;1.00;;;;;;2276284;61;1134;-85
2022/10/07 09:05:34;212720.00;0.71;367.82;0.00;0.00;0.62;;;;;21.70;1.00;;;;;;2276310;61;969;-85
2022/10/07 09:08:06;302663.00;1.01;522.50;0.00;0.00;0.62;;;;;21.70;1.00;;;;;;2276175;61;1027;-86
2022/10/07 09:10:38;308535.00;1.03;532.59;0.00;0.00;0.62;;;;;21.30;1.00;;;;;;2276158;61;1010;-86
2022/10/07 09:13:11;397231.00;1.32;685.05;0.00;0.00;0.62;;;;;21.60;1.00;;;;;;2276309;61;1469;-86
2022/10/07 09:15:45;185799.00;0.62;321.48;0.00;0.00;0.62;;;;;21.90;1.00;;;;;;2276302;61;1063;-87
2022/10/07 09:18:19;307037.00;1.02;530.02;0.00;0.00;0.62;;;;;22.10;1.00;;;;;;2276197;61;1980;-87
2022/10/07 09:20:52;365199.00;1.22;629.98;0.00;0.00;0.62;;;;;22.10;1.00;;;;;;2276294;61;1114;-87
2022/10/07 09:23:22;321319.00;1.07;554.57;0.00;0.00;0.62;;;;;22.20;1.00;;;;;;2276873;61;1449;-86
2022/10/07 09:25:50;228773.00;0.76;395.44;0.00;0.00;0.62;;;;;22.50;1.00;;;;;;2276912;61;1169;-86
2022/10/07 09:28:21;255519.00;0.85;441.44;0.00;0.00;0.62;;;;;22.50;1.00;;;;;;2276928;61;1071;-87
2022/10/07 09:30:49;250593.00;0.84;432.97;0.00;0.00;0.62;;;;;22.50;1.00;;;;;;2276941;61;1086;-87
2022/10/07 09:33:20;288690.00;0.96;498.48;0.00;0.00;0.62;;;;;22.60;1.00;;;;;;2276868;61;1370;-87
2022/10/07 09:35:53;345487.00;1.15;596.10;0.00;0.00;0.62;;;;;22.70;1.00;;;;;;2276404;61;884;-87
2022/10/07 09:38:35;269234.00;0.90;465.03;0.00;0.00;0.62;;;;;22.80;1.00;;;;;;2276873;61;1990;-87
2022/10/07 09:41:18;390653.00;1.30;673.74;42410.00;0.14;74.06;;;;;22.70;1.00;;;;;;2276768;61;1043;-87
2022/10/07 09:43:59;403763.00;1.35;696.27;46306.00;0.15;80.80;;;;;22.60;1.00;;;;;;2276781;61;1577;-87
2022/10/07 09:46:45;391403.00;1.30;675.03;79801.00;0.27;138.69;;;;;22.20;1.00;;;;;;2276845;61;997;-86
2022/10/07 09:49:32;709615.00;2.37;1223.92;92773.00;0.31;161.10;;;;;22.40;1.00;;;;;;2276849;61;1601;-87
2022/10/07 09:52:01;1046622.00;3.49;1815.22;62881.00;0.21;109.46;;;;;22.50;1.00;;;;;;2276909;61;1089;-87
2022/10/07 09:54:29;857115.00;2.86;1480.92;61143.00;0.20;106.45;;;;;22.60;1.00;;;;;;2276710;61;1417;-88
2022/10/07 09:57:16;1117329.00;3.72;1941.44;118517.00;0.40;205.52;;;;;22.80;1.00;;;;;;2276699;61;1179;-86
2022/10/07 09:59:43;742432.00;2.47;1280.90;9582.00;0.03;17.22;;;;;22.80;1.00;;;;;;2279056;40;3610;-87
2022/10/07 10:02:22;291534.00;0.97;503.37;0.00;0.00;0.62;;;;;22.80;1.00;;;;;;2276841;61;1028;-87
2022/10/07 10:04:51;1149244.00;3.83;1998.72;37127.00;0.12;64.92;;;;;23.10;1.00;;;;;;2276797;61;1471;-87
2022/10/07 10:07:21;366267.00;1.22;631.82;62252.00;0.21;108.37;;;;;23.20;1.00;;;;;;2276798;61;1143;-87
2022/10/07 10:09:50;631372.00;2.10;1088.42;119082.00;0.40;206.50;;;;;23.10;1.00;;;;;;2276719;61;1389;-87
2022/10/07 10:12:19;496904.00;1.66;856.49;61992.00;0.21;107.92;;;;;23.00;1.00;;;;;;2276588;61;1144;-87
2022/10/07 10:14:51;394228.00;1.31;679.88;58471.00;0.19;101.83;;;;;23.20;1.00;;;;;;2276648;61;1270;-87
2022/10/07 10:17:33;640163.00;2.13;1103.62;80399.00;0.27;139.73;;;;;23.10;1.00;;;;;;2276670;61;2128;-85
2022/10/07 10:20:29;596509.00;1.99;1028.19;27502.00;0.09;48.26;;;;;23.10;1.00;;;;;;2276738;61;2066;-86
2022/10/07 10:22:57;775240.00;2.58;1337.98;80681.00;0.27;140.21;;;;;23.20;1.00;;;;;;2276699;61;1739;-87